Time;durP1;ratioP1;P1;durP2;ratioP2;P2;SDS_P1;SDS_P2;PMS_P1;PMS_P2;Temp;Humidity;BMP_temperature;BMP_pressure;BME280_temperature;BME280_humidity;BME280_pressure;Samples;Min_cycle;Max_cycle;Signal;HPM_P1;HPM_P2
2021/11/05 00:00:53;;;;;;;48.80;25.75;;;12.10;96.70;;;;;;5094150;28;20519;-51
2021/11/05 00:03:19;;;;;;;52.72;23.52;;;12.10;96.70;;;;;;5087011;28;20025;-55
2021/11/05 00:05:45;;;;;;;46.30;25.02;;;12.20;96.80;;;;;;5108703;28;20491;-51
2021/11/05 00:08:10;;;;;;;43.15;23.58;;;12.20;96.80;;;;;;5099775;28;20034;-55
2021/11/05 00:10:41;;;;;;;46.88;23.90;;;12.20;96.90;;;;;;5100711;28;20055;-53
2021/11/05 00:13:08;;;;;;;48.20;23.90;;;12.20;96.70;;;;;;5085176;28;20020;-52
2021/11/05 00:15:36;;;;;;;49.53;25.25;;;12.20;96.70;;;;;;5086996;28;20051;-53
2021/11/05 00:18:01;;;;;;;53.60;27.27;;;12.20;96.70;;;;;;5094291;28;20024;-51
2021/11/05 00:20:28;;;;;;;53.92;26.15;;;12.20;96.70;;;;;;5095166;28;20140;-51
2021/11/05 00:22:54;;;;;;;45.88;23.35;;;12.20;96.70;;;;;;5085754;28;20115;-54
2021/11/05 00:25:21;;;;;;;50.30;25.08;;;12.20;96.70;;;;;;5093687;28;20077;-52
2021/11/05 00:27:47;;;;;;;50.92;26.27;;;12.20;96.80;;;;;;5093521;28;20095;-55
2021/11/05 00:30:14;;;;;;;49.65;24.02;;;12.20;96.90;;;;;;5081919;28;20020;-52
2021/11/05 00:32:41;;;;;;;52.63;26.80;;;12.20;96.90;;;;;;5093298;28;20024;-54
2021/11/05 00:35:07;;;;;;;45.30;22.90;;;12.20;97.20;;;;;;5093601;28;20028;-52
2021/11/05 00:37:33;;;;;;;42.42;23.00;;;12.20;97.30;;;;;;5095168;28;20032;-54
2021/11/05 00:39:59;;;;;;;40.10;22.05;;;12.30;97.50;;;;;;5090184;28;20032;-52
2021/11/05 00:42:25;;;;;;;43.92;22.67;;;12.30;97.50;;;;;;5093354;28;20377;-54
2021/11/05 00:44:51;;;;;;;47.97;24.00;;;12.30;97.70;;;;;;5092730;28;20469;-54
2021/11/05 00:47:17;;;;;;;46.13;22.95;;;12.40;97.60;;;;;;5092202;28;20031;-51
2021/11/05 00:49:43;;;;;;;39.22;22.02;;;12.40;97.70;;;;;;5092495;28;20028;-54
2021/11/05 00:52:09;;;;;;;40.00;20.10;;;12.50;98.00;;;;;;5092991;28;20035;-51
2021/11/05 00:54:35;;;;;;;33.28;18.98;;;12.50;98.20;;;;;;5091931;28;20028;-51
2021/11/05 00:57:01;;;;;;;30.02;17.88;;;12.60;98.70;;;;;;5090779;28;20028;-51
2021/11/05 00:59:26;;;;;;;28.50;17.58;;;12.70;99.30;;;;;;5096326;28;20447;-52
2021/11/05 01:01:52;;;;;;;28.52;16.77;;;12.80;99.60;;;;;;5088062;28;20056;-51
2021/11/05 01:04:18;;;;;;;25.67;16.00;;;12.90;99.90;;;;;;5087942;28;20035;-54
2021/11/05 01:06:43;;;;;;;24.00;14.82;;;13.00;99.90;;;;;;5091659;28;20035;-52
2021/11/05 01:09:09;;;;;;;24.48;15.23;;;13.10;99.90;;;;;;5092942;28;20065;-53
2021/11/05 01:11:35;;;;;;;23.90;15.70;;;13.20;99.90;;;;;;5093227;28;20020;-54
2021/11/05 01:14:01;;;;;;;22.80;16.05;;;13.40;99.80;;;;;;5092332;28;20026;-55
2021/11/05 01:16:27;;;;;;;23.58;15.80;;;13.50;99.80;;;;;;5092190;28;20036;-54
2021/11/05 01:18:53;;;;;;;22.40;14.70;;;13.50;99.70;;;;;;5083226;28;20028;-52
2021/11/05 01:21:19;;;;;;;22.42;15.40;;;13.60;99.60;;;;;;5092659;28;20017;-51
2021/11/05 01:23:45;;;;;;;26.23;14.45;;;13.70;99.50;;;;;;5082356;28;20024;-55
2021/11/05 01:26:11;;;;;;;24.75;14.57;;;13.70;99.40;;;;;;5092795;28;20027;-52
2021/11/05 01:28:36;;;;;;;23.95;15.18;;;13.80;99.40;;;;;;5092306;28;20103;-55
2021/11/05 01:31:02;;;;;;;22.38;14.80;;;13.80;99.20;;;;;;5085618;28;20077;-51
2021/11/05 01:33:28;;;;;;;21.27;14.15;;;13.90;99.20;;;;;;5086908;28;20025;-53
2021/11/05 01:35:54;;;;;;;22.55;15.00;;;13.90;99.10;;;;;;5089099;28;20437;-51
2021/11/05 01:38:20;;;;;;;21.85;13.57;;;14.00;99.00;;;;;;5092781;28;20031;-51
2021/11/05 01:40:46;;;;;;;18.88;13.38;;;14.00;98.90;;;;;;5082511;28;20035;-51
2021/11/05 01:43:13;;;;;;;18.95;13.43;;;14.10;98.90;;;;;;5092706;28;20032;-53
2021/11/05 01:45:40;;;;;;;19.60;12.98;;;14.10;98.80;;;;;;5092410;28;20028;-53
2021/11/05 01:48:06;;;;;;;19.00;13.52;;;14.10;98.70;;;;;;5081228;28;20099;-55
2021/11/05 01:50:32;;;;;;;19.33;13.63;;;14.10;98.50;;;;;;5091660;28;20024;-55
2021/11/05 01:52:58;;;;;;;17.95;12.20;;;14.10;98.50;;;;;;5096582;28;20099;-54
2021/11/05 01:55:24;;;;;;;21.50;13.90;;;14.20;98.40;;;;;;5095578;28;20512;-55
2021/11/05 01:57:50;;;;;;;19.63;13.02;;;14.20;98.40;;;;;;5095258;28;20107;-55
2021/11/05 02:00:22;;;;;;;18.85;12.95;;;14.20;98.40;;;;;;5096392;28;20158;-53
2021/11/05 02:02:48;;;;;;;19.77;12.75;;;14.30;98.30;;;;;;5094864;28;20080;-54
2021/11/05 02:05:14;;;;;;;24.17;13.93;;;14.30;98.20;;;;;;5079959;28;20468;-52
2021/11/05 02:07:44;;;;;;;20.65;13.63;;;14.30;98.20;;;;;;5089777;28;20025;-52
2021/11/05 02:10:11;;;;;;;20.83;12.00;;;14.30;98.20;;;;;;5096101;28;20113;-54
2021/11/05 02:12:38;;;;;;;20.38;12.57;;;14.30;98.00;;;;;;5100573;28;20086;-54
2021/11/05 02:15:05;;;;;;;20.23;12.77;;;14.30;98.00;;;;;;5095455;28;20716;-52
2021/11/05 02:17:31;;;;;;;18.63;12.43;;;14.40;98.00;;;;;;5095910;28;20119;-54
2021/11/05 02:19:58;;;;;;;16.85;11.52;;;14.40;98.00;;;;;;5093541;28;20040;-53
2021/11/05 02:22:24;;;;;;;16.70;11.85;;;14.40;98.00;;;;;;5087716;28;20414;-51
2021/11/05 02:24:50;;;;;;;16.15;12.10;;;14.40;97.90;;;;;;5095834;28;20038;-54
2021/11/05 02:27:16;;;;;;;15.50;10.80;;;14.40;97.90;;;;;;5096148;28;20468;-53
2021/11/05 02:29:42;;;;;;;15.85;12.27;;;14.40;97.90;;;;;;5094674;28;20032;-52
2021/11/05 02:32:08;;;;;;;16.65;11.32;;;14.50;97.90;;;;;;5095803;28;20043;-52
2021/11/05 02:34:34;;;;;;;15.27;10.75;;;14.50;97.80;;;;;;5095334;28;20024;-52
2021/11/05 02:37:03;;;;;;;15.77;11.88;;;14.50;97.70;;;;;;5089772;28;20054;-55
2021/11/05 02:39:29;;;;;;;15.35;10.70;;;14.50;97.70;;;;;;5089773;28;20036;-54
2021/11/05 02:41:55;;;;;;;15.23;11.48;;;14.50;97.60;;;;;;5095155;28;20032;-52
2021/11/05 02:44:21;;;;;;;18.52;11.50;;;14.50;97.60;;;;;;5095430;28;20028;-52
2021/11/05 02:46:48;;;;;;;17.52;10.77;;;14.50;97.60;;;;;;5089706;28;20035;-54
2021/11/05 02:49:15;;;;;;;14.95;10.75;;;14.50;97.50;;;;;;5087443;28;20012;-52
2021/11/05 02:51:42;;;;;;;18.17;11.90;;;14.50;97.50;;;;;;5085819;28;20029;-51
2021/11/05 02:54:09;;;;;;;15.10;10.23;;;14.50;97.60;;;;;;5083594;28;20423;-53
2021/11/05 02:56:35;;;;;;;16.08;10.50;;;14.60;97.60;;;;;;5093084;28;20058;-54
2021/11/05 02:59:02;;;;;;;15.45;9.77;;;14.60;97.60;;;;;;5095276;28;20056;-52
2021/11/05 03:01:28;;;;;;;16.42;10.80;;;14.60;97.50;;;;;;5095553;28;20016;-51
2021/11/05 03:04:03;;;;;;;14.18;9.90;;;14.60;97.40;;;;;;5088903;28;20025;-51
2021/11/05 03:06:34;;;;;;;15.48;10.20;;;14.60;97.40;;;;;;5092161;28;20024;-51
2021/11/05 03:09:09;;;;;;;15.15;9.45;;;14.60;97.30;;;;;;5084546;28;20077;-53
2021/11/05 03:11:36;;;;;;;13.60;8.90;;;14.60;97.30;;;;;;5088441;28;20039;-52
2021/11/05 03:14:03;;;;;;;12.77;9.48;;;14.60;97.30;;;;;;5097728;28;20027;-51
2021/11/05 03:16:29;;;;;;;15.48;10.27;;;14.60;97.30;;;;;;5094716;28;20135;-51
2021/11/05 03:18:54;;;;;;;15.07;9.90;;;14.60;97.30;;;;;;5094930;28;20052;-52
2021/11/05 06:39:56;;;;;;;15.48;10.85;;;15.70;96.50;;;;;;4229560;28;1561263;-59
2021/11/05 06:45:44;;;;;;;16.70;12.68;;;15.80;96.30;;;;;;4982305;28;20053;-60
2021/11/05 06:48:11;;;;;;;17.00;12.35;;;15.80;96.40;;;;;;4979642;28;22731;-60
2021/11/05 06:50:38;;;;;;;15.57;10.77;;;15.80;96.30;;;;;;4983870;28;20045;-60
2021/11/05 06:53:04;;;;;;;16.42;12.65;;;15.80;96.20;;;;;;4983990;28;20335;-61
2021/11/05 06:55:29;;;;;;;15.70;11.48;;;15.80;96.10;;;;;;4979106;28;20038;-61
2021/11/05 06:57:55;;;;;;;17.63;12.30;;;15.80;96.00;;;;;;4976039;28;20037;-60
2021/11/05 07:00:21;;;;;;;16.42;11.82;;;15.80;96.00;;;;;;4975791;28;20149;-60
2021/11/05 07:02:46;;;;;;;16.88;12.43;;;15.80;96.10;;;;;;4986008;28;20022;-60
2021/11/05 07:05:14;;;;;;;16.02;11.75;;;15.80;96.00;;;;;;4986656;28;20448;-60
2021/11/05 07:07:41;;;;;;;17.88;12.57;;;15.90;96.00;;;;;;4984945;28;20497;-60
2021/11/05 07:10:08;;;;;;;15.75;12.15;;;15.90;96.00;;;;;;4983862;28;20034;-60
2021/11/05 07:12:34;;;;;;;16.77;11.15;;;15.90;95.90;;;;;;4983402;28;20064;-60
2021/11/05 07:15:00;;;;;;;14.57;10.80;;;15.90;95.80;;;;;;4985896;28;20022;-60
2021/11/05 07:17:25;;;;;;;19.85;13.90;;;15.90;95.90;;;;;;4976992;28;20031;-60
2021/11/05 07:19:51;;;;;;;16.88;11.52;;;15.90;95.90;;;;;;4976339;28;20114;-60
2021/11/05 07:22:17;;;;;;;17.05;12.98;;;15.90;95.90;;;;;;4971398;28;20026;-60
2021/11/05 07:24:44;;;;;;;18.23;13.73;;;15.90;95.90;;;;;;4975112;28;20541;-60
2021/11/05 07:27:11;;;;;;;16.45;11.55;;;16.00;95.90;;;;;;4976585;28;20046;-61
2021/11/05 07:29:37;;;;;;;17.45;12.35;;;16.00;95.90;;;;;;4970182;28;20029;-60
2021/11/05 07:32:07;;;;;;;23.90;15.73;;;16.00;96.20;;;;;;4971657;28;20034;-60
2021/11/05 07:34:33;;;;;;;20.17;12.85;;;16.00;95.90;;;;;;4974484;28;20104;-61
2021/11/05 07:37:07;;;;;;;16.65;11.30;;;16.00;96.00;;;;;;4970228;28;20153;-60
2021/11/05 07:39:32;;;;;;;16.45;11.40;;;16.00;96.00;;;;;;4973203;28;20051;-59
2021/11/05 07:41:58;;;;;;;18.42;11.98;;;16.00;95.90;;;;;;4974171;28;20085;-60
2021/11/05 07:44:24;;;;;;;16.98;12.07;;;16.10;95.80;;;;;;4970778;28;20039;-60
2021/11/05 07:46:49;;;;;;;19.67;12.25;;;16.10;96.00;;;;;;4975599;28;20056;-61
2021/11/05 07:49:16;;;;;;;17.38;11.82;;;16.10;95.90;;;;;;4975040;28;20058;-60
2021/11/05 07:51:42;;;;;;;18.10;12.75;;;16.20;95.90;;;;;;4969688;28;20090;-61
2021/11/05 07:54:08;;;;;;;15.95;11.40;;;16.20;95.80;;;;;;4964986;28;20065;-60
2021/11/05 07:56:35;;;;;;;16.02;11.68;;;16.30;95.70;;;;;;4973752;28;20467;-60
2021/11/05 07:59:02;;;;;;;17.67;11.00;;;16.20;95.60;;;;;;4965599;28;20030;-60
2021/11/05 08:01:28;;;;;;;17.30;11.73;;;16.30;95.60;;;;;;4973808;28;20093;-60
2021/11/05 08:03:54;;;;;;;17.40;11.38;;;16.30;95.40;;;;;;4964736;28;20488;-60
2021/11/05 08:06:20;;;;;;;18.13;13.27;;;16.40;95.40;;;;;;4971921;28;20042;-61
2021/11/05 08:08:46;;;;;;;20.42;13.80;;;16.40;95.30;;;;;;4973568;28;20413;-60
2021/11/05 08:11:12;;;;;;;21.77;14.07;;;16.40;95.20;;;;;;4973618;28;20058;-60
2021/11/05 08:13:39;;;;;;;17.65;12.48;;;16.40;95.20;;;;;;4971718;28;20534;-61
2021/11/05 08:16:05;;;;;;;19.52;12.98;;;16.40;95.20;;;;;;4972963;28;20051;-61
2021/11/05 08:18:31;;;;;;;27.90;17.30;;;16.40;95.20;;;;;;4971196;28;20114;-61
2021/11/05 08:20:57;;;;;;;29.95;16.58;;;16.40;95.20;;;;;;4973882;28;20035;-61
2021/11/05 08:23:23;;;;;;;34.45;17.98;;;16.50;95.20;;;;;;4977245;28;20026;-61
2021/11/05 08:25:49;;;;;;;28.10;17.52;;;16.50;95.10;;;;;;4974735;28;20615;-61
2021/11/05 08:28:17;;;;;;;29.92;17.40;;;16.50;95.00;;;;;;4973010;28;20030;-61
2021/11/05 08:30:43;;;;;;;39.92;21.50;;;16.50;94.90;;;;;;4970225;28;20030;-61
2021/11/05 08:33:09;;;;;;;21.60;14.40;;;16.50;94.90;;;;;;4959976;28;20026;-61
2021/11/05 08:35:36;;;;;;;20.02;13.07;;;16.50;94.90;;;;;;4970828;28;20036;-60
2021/11/05 08:38:04;;;;;;;19.50;12.50;;;16.50;94.80;;;;;;4968841;28;20047;-60
2021/11/05 08:40:30;;;;;;;22.15;13.05;;;16.50;94.80;;;;;;4970084;28;20054;-61
2021/11/05 08:42:56;;;;;;;28.27;15.75;;;16.50;94.80;;;;;;4974480;28;20125;-60
2021/11/05 08:45:22;;;;;;;26.55;13.43;;;16.50;94.90;;;;;;4974601;28;20751;-61
2021/11/05 08:47:48;;;;;;;29.50;16.67;;;16.50;94.80;;;;;;4974484;28;20065;-60
2021/11/05 08:50:19;;;;;;;29.17;15.40;;;16.50;94.70;;;;;;4970007;28;20031;-61
2021/11/05 08:52:45;;;;;;;23.30;15.38;;;16.50;94.60;;;;;;4972026;28;20888;-61
2021/11/05 08:55:11;;;;;;;24.85;14.25;;;16.50;94.60;;;;;;4980614;28;20039;-61
2021/11/05 08:57:38;;;;;;;18.58;13.10;;;16.60;94.70;;;;;;4979232;28;20397;-59
2021/11/05 09:00:14;;;;;;;20.65;13.20;;;16.60;94.60;;;;;;4980075;28;20374;-61
2021/11/05 09:02:41;;;;;;;20.25;12.95;;;16.60;94.60;;;;;;4982606;28;20030;-61
2021/11/05 09:05:07;;;;;;;17.15;12.93;;;16.60;94.70;;;;;;4982194;28;20036;-61
2021/11/05 09:07:33;;;;;;;18.13;11.57;;;16.60;94.70;;;;;;4979344;28;20498;-61
2021/11/05 09:09:59;;;;;;;18.23;12.93;;;16.60;94.60;;;;;;4980375;28;20034;-60
2021/11/05 09:12:25;;;;;;;18.52;12.68;;;16.70;94.60;;;;;;4980032;28;20033;-61
2021/11/05 09:14:50;;;;;;;19.48;12.30;;;16.70;94.60;;;;;;4970518;28;20054;-59
2021/11/05 09:17:17;;;;;;;23.90;16.30;;;16.60;94.50;;;;;;4970573;28;20029;-62
2021/11/05 09:19:42;;;;;;;26.00;15.05;;;16.70;94.50;;;;;;4973306;28;20038;-61
2021/11/05 09:22:08;;;;;;;26.02;16.13;;;16.70;94.60;;;;;;4978301;28;20030;-59
2021/11/05 09:24:34;;;;;;;31.02;18.13;;;16.70;94.50;;;;;;4972398;28;20065;-61
2021/11/05 09:27:00;;;;;;;39.72;20.33;;;16.70;94.50;;;;;;4973308;28;20041;-59
2021/11/05 09:29:26;;;;;;;37.40;20.25;;;16.80;94.50;;;;;;4973843;28;21477;-59
2021/11/05 09:31:52;;;;;;;41.95;21.08;;;16.80;94.50;;;;;;4974342;28;20023;-62
2021/11/05 09:34:18;;;;;;;42.47;22.63;;;16.80;94.40;;;;;;4976400;28;20471;-59
2021/11/05 09:36:43;;;;;;;33.80;19.40;;;16.80;94.40;;;;;;4978805;28;20095;-59
2021/11/05 09:39:09;;;;;;;35.22;19.80;;;16.80;94.40;;;;;;4972336;28;20081;-58
2021/11/05 09:41:35;;;;;;;31.25;16.85;;;16.90;94.30;;;;;;4975865;28;20057;-58
2021/11/05 09:44:01;;;;;;;26.77;17.08;;;16.90;94.30;;;;;;4972511;28;20439;-60
2021/11/05 09:46:27;;;;;;;22.65;15.00;;;16.90;94.60;;;;;;4973601;28;20027;-59
2021/11/05 09:48:52;;;;;;;20.58;13.82;;;16.90;94.30;;;;;;4975310;28;20030;-60
2021/11/05 09:51:19;;;;;;;18.25;12.77;;;16.90;94.10;;;;;;4971425;28;20034;-59
2021/11/05 09:53:45;;;;;;;20.58;14.13;;;17.00;94.20;;;;;;4976080;28;20033;-60
2021/11/05 09:56:17;;;;;;;19.42;13.50;;;17.00;94.10;;;;;;4972671;28;20034;-59
2021/11/05 09:58:44;;;;;;;21.98;14.23;;;17.00;94.10;;;;;;4974497;28;20762;-59
2021/11/05 10:01:11;;;;;;;24.23;16.33;;;17.00;94.10;;;;;;4974851;28;20035;-60
2021/11/05 10:03:37;;;;;;;24.65;17.05;;;17.00;94.00;;;;;;4969091;28;20034;-59
2021/11/05 10:06:08;;;;;;;21.10;14.68;;;17.10;94.00;;;;;;4975429;28;20382;-59
2021/11/05 10:08:35;;;;;;;22.67;15.10;;;17.10;94.00;;;;;;4973985;28;20058;-58
2021/11/05 10:11:21;;;;;;;25.25;14.82;;;17.10;94.00;;;;;;4973419;28;20101;-59
2021/11/05 10:13:47;;;;;;;18.35;13.05;;;17.10;93.90;;;;;;4963616;28;20521;-59
2021/11/05 10:16:15;;;;;;;18.58;13.48;;;17.20;94.00;;;;;;4970856;28;20034;-59
2021/11/05 10:18:57;;;;;;;17.85;13.35;;;17.10;93.90;;;;;;4965955;28;20038;-58
2021/11/05 10:21:23;;;;;;;16.95;13.20;;;17.20;93.80;;;;;;4961913;28;20662;-59
2021/11/05 10:23:49;;;;;;;16.75;13.95;;;17.20;93.80;;;;;;4969082;28;20050;-59
2021/11/05 10:26:35;;;;;;;18.30;13.18;;;17.20;93.70;;;;;;4967807;28;20061;-59
2021/11/05 10:29:03;;;;;;;17.42;12.50;;;17.20;93.60;;;;;;4970613;28;20500;-59
2021/11/05 10:31:30;;;;;;;18.75;13.80;;;17.20;93.60;;;;;;4970757;28;20121;-58
2021/11/05 10:33:56;;;;;;;16.58;12.35;;;17.30;93.70;;;;;;4969165;28;23029;-60
2021/11/05 10:36:24;;;;;;;17.40;12.88;;;17.30;93.70;;;;;;4972615;28;20042;-60
2021/11/05 10:38:59;;;;;;;18.35;13.18;;;17.30;93.50;;;;;;4977264;28;20108;-59
2021/11/05 10:41:27;;;;;;;18.30;13.05;;;17.30;93.50;;;;;;4970778;28;20506;-59
2021/11/05 10:43:57;;;;;;;18.00;12.52;;;17.30;93.50;;;;;;4973705;28;20774;-59
2021/11/05 10:46:35;;;;;;;17.73;12.32;;;17.30;93.40;;;;;;4969873;28;20034;-59
2021/11/05 10:49:04;;;;;;;17.80;12.75;;;17.30;93.60;;;;;;4974176;28;20482;-59
2021/11/05 10:51:31;;;;;;;18.67;13.07;;;17.30;93.30;;;;;;4974259;28;20037;-60
2021/11/05 10:53:59;;;;;;;16.73;13.18;;;17.30;93.30;;;;;;4973311;28;20030;-59
2021/11/05 10:56:29;;;;;;;20.08;14.00;;;17.30;93.30;;;;;;4971441;28;20093;-60
2021/11/05 10:58:56;;;;;;;17.92;12.13;;;17.30;93.30;;;;;;4974349;28;20152;-59
2021/11/05 11:01:24;;;;;;;17.98;13.57;;;17.40;93.30;;;;;;4970352;28;20402;-60
2021/11/05 11:03:58;;;;;;;17.67;13.27;;;17.30;93.20;;;;;;4968729;28;20062;-59
2021/11/05 11:06:29;;;;;;;17.65;12.88;;;17.40;93.30;;;;;;4980549;28;20038;-59
2021/11/05 11:09:09;;;;;;;20.15;13.95;;;17.40;93.50;;;;;;4958810;28;20125;-58
2021/11/05 11:11:40;;;;;;;21.05;15.30;;;17.40;93.20;;;;;;4969404;28;20033;-59
2021/11/05 11:14:17;;;;;;;20.15;13.90;;;17.40;93.20;;;;;;4965841;28;20014;-59
2021/11/05 11:16:47;;;;;;;19.30;14.00;;;17.40;93.20;;;;;;4966254;28;20085;-59
2021/11/05 11:19:21;;;;;;;22.75;14.95;;;17.40;93.10;;;;;;4969557;28;20038;-59
2021/11/05 11:21:47;;;;;;;22.95;14.00;;;17.40;93.20;;;;;;4972667;28;20030;-59
2021/11/05 11:24:16;;;;;;;21.35;15.88;;;17.40;93.20;;;;;;4970257;28;20053;-59
2021/11/05 11:26:46;;;;;;;27.02;19.55;;;17.40;93.10;;;;;;4971148;28;21040;-59
2021/11/05 11:29:14;;;;;;;19.13;15.48;;;17.40;93.10;;;;;;4968820;28;20018;-59
2021/11/05 11:31:40;;;;;;;27.92;17.45;;;17.40;93.00;;;;;;4969866;28;20058;-59
2021/11/05 11:34:09;;;;;;;34.85;20.63;;;17.40;93.10;;;;;;4972862;28;20035;-61
2021/11/05 11:36:41;;;;;;;30.13;19.95;;;17.40;93.10;;;;;;4973792;28;20045;-59
2021/11/05 11:39:10;;;;;;;33.83;20.65;;;17.40;93.00;;;;;;4972746;28;20050;-59
2021/11/05 11:41:37;;;;;;;39.10;21.98;;;17.50;93.10;;;;;;4977331;28;20026;-60
2021/11/05 11:44:04;;;;;;;45.75;25.42;;;17.50;93.00;;;;;;4966739;28;20034;-60
2021/11/05 11:47:03;;;;;;;47.10;25.52;;;17.50;93.10;;;;;;4970325;28;20037;-60
2021/11/05 11:49:41;;;;;;;50.65;26.98;;;17.50;92.90;;;;;;4972652;28;20042;-60
2021/11/05 11:52:19;;;;;;;44.80;25.40;;;17.50;93.00;;;;;;4965404;28;20478;-60
2021/11/05 11:54:51;;;;;;;45.38;24.50;;;17.50;93.10;;;;;;4966208;28;20030;-59
2021/11/05 11:57:26;;;;;;;45.22;24.90;;;17.60;93.10;;;;;;4957490;28;20125;-59
2021/11/05 12:00:15;;;;;;;43.45;24.92;;;17.60;93.00;;;;;;4967848;28;20062;-60
2021/11/05 12:03:00;;;;;;;47.13;27.77;;;17.60;92.90;;;;;;4957021;28;20577;-60
2021/11/05 12:05:30;;;;;;;41.10;24.42;;;17.70;93.00;;;;;;4971101;28;20031;-60
2021/11/05 12:08:21;;;;;;;52.15;27.90;;;17.70;92.80;;;;;;4971674;28;20039;-59
2021/11/05 12:10:51;;;;;;;42.95;25.77;;;17.70;92.70;;;;;;4966753;28;20030;-60
2021/11/05 12:13:35;;;;;;;41.20;23.10;;;17.70;92.70;;;;;;4962546;28;20042;-60
2021/11/05 12:16:13;;;;;;;37.35;22.17;;;17.70;92.60;;;;;;4962204;28;20482;-60
2021/11/05 12:18:58;;;;;;;36.67;22.08;;;17.70;92.60;;;;;;4966305;28;20046;-60
2021/11/05 12:21:44;;;;;;;31.30;19.48;;;17.80;92.40;;;;;;4960908;28;20109;-59
2021/11/05 12:24:31;;;;;;;33.65;20.83;;;17.80;92.20;;;;;;4964126;28;20347;-59
2021/11/05 12:26:59;;;;;;;30.05;19.02;;;17.80;92.20;;;;;;4970925;28;20069;-59
2021/11/05 12:29:34;;;;;;;32.70;19.67;;;17.70;92.20;;;;;;4967309;28;20041;-59
2021/11/05 12:32:02;;;;;;;28.08;17.67;;;17.70;92.20;;;;;;4959354;28;20033;-59
2021/11/05 12:34:39;;;;;;;28.48;19.08;;;17.70;92.20;;;;;;4966551;28;20070;-59
2021/11/05 12:37:05;;;;;;;34.20;20.85;;;17.70;92.20;;;;;;4970853;28;20054;-59
2021/11/05 12:39:37;;;;;;;29.52;18.85;;;17.70;92.10;;;;;;4972405;28;20070;-59
2021/11/05 12:42:10;;;;;;;29.20;18.92;;;17.70;92.10;;;;;;4971478;28;20034;-59
2021/11/05 12:44:55;;;;;;;35.33;21.92;;;17.70;92.00;;;;;;4968420;28;20866;-59
2021/11/05 12:47:47;;;;;;;33.90;20.65;;;17.70;92.00;;;;;;4971081;28;20038;-59
2021/11/05 12:50:15;;;;;;;34.72;21.23;;;17.70;92.00;;;;;;4971730;28;20044;-59
2021/11/05 12:52:49;;;;;;;30.40;19.02;;;17.70;92.00;;;;;;4969536;28;20026;-59
2021/11/05 12:55:15;;;;;;;25.42;17.38;;;17.70;91.90;;;;;;4965068;28;20442;-59
2021/11/05 12:57:48;;;;;;;25.65;15.93;;;17.70;92.00;;;;;;4974545;28;20037;-59
2021/11/05 13:00:14;;;;;;;23.67;15.73;;;17.70;91.80;;;;;;4968621;28;20038;-59
2021/11/05 13:02:40;;;;;;;26.70;16.05;;;17.70;91.70;;;;;;4965100;28;20129;-59
2021/11/05 13:05:09;;;;;;;23.90;15.68;;;17.70;91.60;;;;;;4968226;28;20030;-59
2021/11/05 13:07:35;;;;;;;27.40;17.60;;;17.70;91.60;;;;;;4962419;28;20269;-59
2021/11/05 13:10:01;;;;;;;28.88;17.38;;;17.70;91.50;;;;;;4966719;28;20045;-59
2021/11/05 13:12:28;;;;;;;32.55;18.52;;;17.70;91.50;;;;;;4964966;28;20073;-60
2021/11/05 13:15:00;;;;;;;23.27;16.58;;;17.70;91.50;;;;;;4969874;28;20026;-59
2021/11/05 13:17:42;;;;;;;28.40;16.60;;;17.70;91.80;;;;;;4978484;28;20026;-59
2021/11/05 13:20:35;;;;;;;28.13;17.35;;;17.70;91.50;;;;;;4968680;28;20100;-58
2021/11/05 13:23:02;;;;;;;29.83;18.08;;;17.70;91.40;;;;;;4966303;28;20046;-59
2021/11/05 13:25:35;;;;;;;35.90;21.42;;;17.70;91.50;;;;;;4963873;28;20026;-60
2021/11/05 13:28:00;;;;;;;36.80;21.95;;;17.70;91.50;;;;;;4969568;28;20043;-59
2021/11/05 13:30:46;;;;;;;46.22;24.20;;;17.70;91.50;;;;;;4970184;28;20034;-59
2021/11/05 13:33:20;;;;;;;42.90;23.55;;;17.60;91.30;;;;;;4977911;28;20037;-59
2021/11/05 13:35:55;;;;;;;47.00;25.83;;;17.60;91.40;;;;;;4978240;28;20034;-60
2021/11/05 13:38:26;;;;;;;49.70;26.02;;;17.70;91.50;;;;;;4972060;28;20686;-60
2021/11/05 13:41:01;;;;;;;56.22;26.98;;;17.60;91.40;;;;;;4969334;28;20034;-59
2021/11/05 13:43:30;;;;;;;44.53;25.58;;;17.60;91.50;;;;;;4968970;28;20038;-59
2021/11/05 13:46:02;;;;;;;42.35;22.73;;;17.60;91.40;;;;;;4975132;28;20031;-59
2021/11/05 13:48:38;;;;;;;37.20;21.40;;;17.60;91.40;;;;;;4972276;28;20039;-59
2021/11/05 13:51:15;;;;;;;33.50;19.85;;;17.60;91.30;;;;;;4961232;28;20062;-59
2021/11/05 13:53:55;;;;;;;28.10;17.17;;;17.60;91.20;;;;;;4971230;28;20104;-59
2021/11/05 13:56:27;;;;;;;24.00;15.98;;;17.60;91.30;;;;;;4964954;28;20032;-59
2021/11/05 13:58:57;;;;;;;24.23;16.23;;;17.60;91.30;;;;;;4964726;28;20089;-60
2021/11/05 14:01:25;;;;;;;29.23;17.35;;;17.60;91.30;;;;;;4967182;28;20026;-59
2021/11/05 14:03:54;;;;;;;21.08;15.00;;;17.60;91.30;;;;;;4969262;28;20062;-59
2021/11/05 14:06:22;;;;;;;19.30;14.65;;;17.50;91.20;;;;;;4974405;28;20718;-59
2021/11/05 14:08:59;;;;;;;22.25;15.55;;;17.50;91.20;;;;;;4973124;28;20382;-59
2021/11/05 14:11:33;;;;;;;21.27;15.52;;;17.50;91.30;;;;;;4976344;28;20030;-59
2021/11/05 14:14:15;;;;;;;23.38;16.33;;;17.50;91.30;;;;;;4971421;28;20022;-58
2021/11/05 14:16:44;;;;;;;;;;;17.50;91.20;;;;;;4977089;28;20038;-59
2021/11/05 14:19:12;;;;;;;22.00;14.98;;;17.40;91.20;;;;;;4978030;28;19959;-59
2021/11/05 14:21:39;;;;;;;23.25;15.48;;;17.50;91.40;;;;;;4979066;28;20112;-59
2021/11/05 14:24:23;;;;;;;23.98;15.75;;;17.50;91.40;;;;;;4981046;28;20576;-59
2021/11/05 14:27:06;;;;;;;29.20;19.15;;;17.50;91.40;;;;;;4977444;28;20038;-59
2021/11/05 14:29:37;;;;;;;24.33;18.55;;;17.50;91.50;;;;;;4978020;28;20508;-59
2021/11/05 14:32:05;;;;;;;30.58;21.30;;;17.50;91.60;;;;;;4972567;28;20026;-59
2021/11/05 14:34:46;;;;;;;31.38;22.50;;;17.50;91.60;;;;;;4965114;28;20153;-59
2021/11/05 14:37:18;;;;;;;32.72;25.08;;;17.50;91.60;;;;;;4974329;28;20058;-59
2021/11/05 14:39:56;;;;;;;35.95;25.40;;;17.50;91.70;;;;;;4962582;28;20068;-59
2021/11/05 14:42:24;;;;;;;36.88;26.75;;;17.50;91.70;;;;;;4974947;28;20054;-59
2021/11/05 14:44:51;;;;;;;35.97;26.15;;;17.50;91.80;;;;;;4975477;28;20037;-59
2021/11/05 14:47:18;;;;;;;34.65;26.13;;;17.50;91.80;;;;;;4973437;28;20018;-59
2021/11/05 14:49:46;;;;;;;35.90;26.20;;;17.50;91.90;;;;;;4968298;28;20792;-59
2021/11/05 14:52:13;;;;;;;35.33;26.05;;;17.50;91.90;;;;;;4969862;28;20141;-59
2021/11/05 14:54:40;;;;;;;35.67;26.55;;;17.50;91.90;;;;;;4969783;28;20038;-59
2021/11/05 14:57:18;;;;;;;33.15;24.88;;;17.50;92.00;;;;;;4974796;28;20038;-59
2021/11/05 14:59:45;;;;;;;31.13;23.15;;;17.50;91.90;;;;;;4978719;28;20053;-59
2021/11/05 15:02:30;;;;;;;31.50;23.75;;;17.50;92.00;;;;;;4971222;28;20058;-59
2021/11/05 15:05:27;;;;;;;31.60;22.80;;;17.50;91.90;;;;;;4976583;28;20038;-58
2021/11/05 15:07:58;;;;;;;35.00;23.60;;;17.50;92.20;;;;;;4968687;28;20030;-59
2021/11/05 15:10:25;;;;;;;;;;;17.50;92.10;;;;;;4976755;28;20049;-59
2021/11/05 15:12:51;;;;;;;26.52;19.65;;;17.40;91.90;;;;;;4976364;28;20270;-59
2021/11/05 15:15:17;;;;;;;27.90;19.90;;;17.50;92.20;;;;;;4979010;28;20037;-59
2021/11/05 15:17:43;;;;;;;25.33;19.40;;;17.50;92.30;;;;;;4980631;28;20145;-59
2021/11/05 15:20:10;;;;;;;32.97;23.58;;;17.50;92.30;;;;;;4973334;28;20394;-58
2021/11/05 15:22:36;;;;;;;30.30;21.77;;;17.50;92.40;;;;;;4986001;28;20116;-59
2021/11/05 15:25:02;;;;;;;29.95;20.73;;;17.50;92.40;;;;;;4974843;28;20042;-59
2021/11/05 15:27:34;;;;;;;28.67;20.00;;;17.50;92.40;;;;;;4986330;28;20061;-59
2021/11/05 15:30:01;;;;;;;26.38;20.13;;;17.50;92.50;;;;;;4976491;28;20147;-59
2021/11/05 15:32:26;;;;;;;26.92;20.67;;;17.50;92.50;;;;;;4977027;28;20018;-57
2021/11/05 15:34:52;;;;;;;27.02;19.55;;;17.50;92.50;;;;;;4980802;28;20377;-59
2021/11/05 15:37:17;;;;;;;32.95;21.30;;;17.50;92.60;;;;;;4985613;28;20096;-61
2021/11/05 15:39:43;;;;;;;27.23;21.48;;;17.50;92.60;;;;;;4979739;28;20085;-59
2021/11/05 15:42:09;;;;;;;26.75;19.90;;;17.50;92.60;;;;;;4978722;28;20114;-59
2021/11/05 15:44:35;;;;;;;30.95;22.83;;;17.50;92.60;;;;;;4977965;28;20615;-59
2021/11/05 15:47:00;;;;;;;30.05;21.33;;;17.50;92.60;;;;;;4978131;28;20046;-59
2021/11/05 15:49:26;;;;;;;27.98;20.55;;;17.50;92.60;;;;;;4983143;28;20366;-59
2021/11/05 15:51:52;;;;;;;29.10;21.75;;;17.50;92.50;;;;;;4983151;28;20136;-59
2021/11/05 15:54:18;;;;;;;30.80;22.08;;;17.50;92.50;;;;;;4982158;28;20048;-59
2021/11/05 15:56:43;;;;;;;28.85;21.60;;;17.50;92.90;;;;;;4983475;28;20031;-59
2021/11/05 15:59:09;;;;;;;27.35;19.75;;;17.50;92.60;;;;;;4983061;28;20039;-58